Time;durP1;ratioP1;P1;durP2;ratioP2;P2;SDS_P1;SDS_P2;PMS_P1;PMS_P2;Temp;Humidity;BMP_temperature;BMP_pressure;BME280_temperature;BME280_humidity;BME280_pressure;Samples;Min_cycle;Max_cycle;Signal;HPM_P1;HPM_P2
2021/12/06 00:00:34;;;;;;;6.93;5.45;;;3.20;99.90;;;;;;5092734;28;20172;-58
2021/12/06 00:03:05;;;;;;;9.52;5.47;;;3.20;99.90;;;;;;5092804;28;20187;-58
2021/12/06 00:05:31;;;;;;;8.52;5.60;;;3.20;99.90;;;;;;5092382;28;20207;-59
2021/12/06 00:07:57;;;;;;;7.47;5.60;;;3.20;99.90;;;;;;5092073;28;20224;-58
2021/12/06 00:10:22;;;;;;;11.02;6.30;;;3.20;99.90;;;;;;5091492;28;20191;-58
2021/12/06 00:12:48;;;;;;;7.97;6.00;;;3.20;99.90;;;;;;5092333;28;20261;-59
2021/12/06 00:15:14;;;;;;;8.05;6.15;;;3.20;99.90;;;;;;5092416;28;20176;-59
2021/12/06 00:17:40;;;;;;;10.05;6.25;;;3.20;99.90;;;;;;5092309;28;20179;-58
2021/12/06 00:20:09;;;;;;;10.57;6.63;;;3.20;99.90;;;;;;5092436;28;20686;-58
2021/12/06 00:22:35;;;;;;;9.80;6.55;;;3.20;99.90;;;;;;5092135;28;20176;-58
2021/12/06 00:25:00;;;;;;;11.65;5.72;;;3.20;99.90;;;;;;5092245;28;20286;-59
2021/12/06 00:27:27;;;;;;;7.72;6.13;;;3.20;99.90;;;;;;5092223;28;20179;-59
2021/12/06 00:29:53;;;;;;;8.40;6.00;;;3.20;99.90;;;;;;5092239;28;20180;-59
2021/12/06 00:32:20;;;;;;;8.02;6.38;;;3.20;99.90;;;;;;5092167;28;20259;-59
2021/12/06 00:34:46;;;;;;;6.88;5.80;;;3.20;99.90;;;;;;5092090;28;20179;-59
2021/12/06 00:37:18;;;;;;;9.93;6.32;;;3.20;99.90;;;;;;5092110;28;20173;-58
2021/12/06 00:39:52;;;;;;;9.00;5.38;;;3.20;99.90;;;;;;5091955;28;20674;-59
2021/12/06 00:42:20;;;;;;;9.38;6.65;;;3.20;99.90;;;;;;5092075;28;20183;-60
2021/12/06 00:44:45;;;;;;;7.60;5.93;;;3.20;99.90;;;;;;5091953;28;20254;-58
2021/12/06 00:47:11;;;;;;;9.57;6.15;;;3.20;99.90;;;;;;5092156;28;20208;-58
2021/12/06 00:49:37;;;;;;;8.05;6.43;;;3.20;99.90;;;;;;5091875;28;20600;-59
2021/12/06 00:52:03;;;;;;;9.57;6.55;;;3.20;99.90;;;;;;5092039;28;20658;-60
2021/12/06 00:54:34;;;;;;;11.10;7.68;;;3.20;99.90;;;;;;5091595;28;20582;-59
2021/12/06 00:57:00;;;;;;;14.60;8.18;;;3.10;99.90;;;;;;5092059;28;20215;-58
2021/12/06 00:59:26;;;;;;;14.80;8.52;;;3.10;99.90;;;;;;5091818;28;20168;-58
2021/12/06 01:01:51;;;;;;;13.35;8.50;;;3.10;99.90;;;;;;5091693;28;20631;-58
2021/12/06 01:04:17;;;;;;;11.95;8.00;;;3.10;99.90;;;;;;5091567;28;20203;-58
2021/12/06 01:06:43;;;;;;;14.18;8.32;;;3.10;99.90;;;;;;5091719;28;20187;-59
2021/12/06 01:09:08;;;;;;;13.35;7.88;;;3.10;99.90;;;;;;5090841;28;20195;-59
2021/12/06 01:11:34;;;;;;;11.98;7.03;;;3.10;99.90;;;;;;5091668;28;20195;-59
2021/12/06 01:14:00;;;;;;;10.13;7.13;;;3.10;99.90;;;;;;5091800;28;20180;-58
2021/12/06 01:16:25;;;;;;;10.60;7.00;;;3.10;99.90;;;;;;5091686;28;20186;-59
2021/12/06 01:18:51;;;;;;;11.93;7.53;;;3.10;99.90;;;;;;5093326;28;20239;-59
2021/12/06 01:21:27;;;;;;;11.02;6.97;;;3.10;99.90;;;;;;5095803;28;20180;-58
2021/12/06 01:23:59;;;;;;;9.20;6.65;;;3.10;99.90;;;;;;5095810;28;20584;-58
2021/12/06 01:39:19;;;;;;;8.27;6.00;;;3.10;99.90;;;;;;5095687;28;20186;-58
2021/12/06 01:41:57;;;;;;;9.48;6.70;;;3.10;99.90;;;;;;5095484;28;20237;-58
2021/12/06 01:44:33;;;;;;;7.68;6.05;;;3.10;99.90;;;;;;5095261;28;20204;-59
2021/12/06 01:47:17;;;;;;;9.13;6.07;;;3.10;99.90;;;;;;5095446;28;20646;-59
2021/12/06 01:49:48;;;;;;;12.25;6.25;;;3.10;99.90;;;;;;5095288;28;20531;-59
2021/12/06 01:52:21;;;;;;;10.05;5.95;;;3.10;99.90;;;;;;5095177;28;20695;-58
2021/12/06 01:54:47;;;;;;;9.02;6.55;;;3.00;99.90;;;;;;5095195;28;20582;-59
2021/12/06 01:57:13;;;;;;;10.27;6.10;;;3.00;99.90;;;;;;5095138;28;20294;-59
2021/12/06 01:59:39;;;;;;;8.38;5.93;;;3.00;99.90;;;;;;5095106;28;20191;-59
2021/12/06 02:02:06;;;;;;;8.13;6.30;;;3.00;99.90;;;;;;5106737;28;20256;-58
2021/12/06 02:04:34;;;;;;;7.90;5.45;;;3.00;99.90;;;;;;5095317;28;20199;-58
2021/12/06 02:07:00;;;;;;;8.68;5.93;;;3.00;99.90;;;;;;5095002;28;20207;-59
2021/12/06 02:09:28;;;;;;;9.02;6.20;;;3.00;99.90;;;;;;5094545;28;20655;-59
2021/12/06 02:11:55;;;;;;;7.97;6.22;;;3.00;99.90;;;;;;5094870;28;20211;-59
2021/12/06 02:19:34;;;;;;;9.50;6.40;;;3.00;99.90;;;;;;5094646;28;20176;-58
2021/12/06 02:22:01;;;;;;;8.35;6.18;;;2.90;99.90;;;;;;5094960;28;20574;-58
2021/12/06 02:24:30;;;;;;;9.75;6.20;;;2.90;99.90;;;;;;5094362;28;20203;-59
2021/12/06 02:26:56;;;;;;;8.82;6.05;;;2.90;99.90;;;;;;5094409;28;20520;-59
2021/12/06 02:29:21;;;;;;;9.55;6.55;;;2.90;99.90;;;;;;5093972;28;20202;-59
2021/12/06 02:31:47;;;;;;;10.25;6.78;;;2.90;99.90;;;;;;5093238;28;20214;-59
2021/12/06 02:34:13;;;;;;;8.90;6.68;;;2.90;99.90;;;;;;5094320;28;20199;-59
2021/12/06 02:36:39;;;;;;;9.48;6.30;;;2.90;99.90;;;;;;5094347;28;20686;-59
2021/12/06 02:39:09;;;;;;;9.85;6.05;;;2.90;99.90;;;;;;5094372;28;20184;-59
2021/12/06 02:41:35;;;;;;;10.90;6.90;;;2.90;99.90;;;;;;5094120;28;20263;-58
2021/12/06 02:44:01;;;;;;;9.68;6.63;;;2.90;99.90;;;;;;5094211;28;20191;-58
2021/12/06 02:46:26;;;;;;;8.52;6.20;;;2.90;99.90;;;;;;5092961;28;20665;-59
2021/12/06 02:48:52;;;;;;;12.20;7.05;;;2.90;99.90;;;;;;5094089;28;20229;-59
2021/12/06 02:51:18;;;;;;;9.88;6.85;;;2.80;99.90;;;;;;5096098;28;20184;-58
2021/12/06 02:53:45;;;;;;;12.18;8.13;;;2.80;99.90;;;;;;5093988;28;20183;-59
2021/12/06 02:59:08;;;;;;;13.05;8.30;;;2.80;99.90;;;;;;5077692;28;20350;-58
2021/12/06 03:01:47;;;;;;;13.93;7.68;;;2.80;99.90;;;;;;5093660;28;20313;-59
2021/12/06 03:04:14;;;;;;;11.90;7.13;;;2.80;99.90;;;;;;5093780;28;20207;-58
2021/12/06 03:06:40;;;;;;;13.75;7.18;;;2.80;99.90;;;;;;5093647;28;20176;-58
2021/12/06 03:09:16;;;;;;;9.45;6.45;;;2.80;99.90;;;;;;5093697;28;20191;-59
2021/12/06 03:11:45;;;;;;;12.32;7.28;;;2.80;99.90;;;;;;5093627;28;20191;-59
2021/12/06 03:14:14;;;;;;;8.23;6.18;;;2.80;99.90;;;;;;5093654;28;20283;-58
2021/12/06 03:16:40;;;;;;;10.15;6.53;;;2.80;99.90;;;;;;5093535;28;20184;-58
2021/12/06 03:19:07;;;;;;;11.57;6.60;;;2.80;99.90;;;;;;5093643;28;20168;-58
2021/12/06 03:21:33;;;;;;;11.40;7.53;;;2.80;99.90;;;;;;5093451;28;20195;-58
2021/12/06 03:23:59;;;;;;;13.10;7.78;;;2.80;99.90;;;;;;5093383;28;20179;-59
2021/12/06 03:26:26;;;;;;;12.18;7.10;;;2.80;99.90;;;;;;5093380;28;20255;-58
2021/12/06 03:28:52;;;;;;;9.57;6.63;;;2.80;99.90;;;;;;5093280;28;20176;-59
2021/12/06 03:31:19;;;;;;;14.70;8.43;;;2.70;99.90;;;;;;5093325;28;20255;-59
2021/12/06 03:33:48;;;;;;;18.95;9.73;;;2.80;99.90;;;;;;5093154;28;20180;-58
2021/12/06 03:36:14;;;;;;;13.55;8.20;;;2.80;99.90;;;;;;5093184;28;20208;-59
2021/12/06 03:38:41;;;;;;;34.00;14.33;;;2.80;99.90;;;;;;5093054;28;20184;-57
2021/12/06 03:41:09;;;;;;;32.83;14.50;;;2.80;99.90;;;;;;5092238;28;20230;-56
2021/12/06 03:43:35;;;;;;;29.27;12.40;;;2.80;99.90;;;;;;5092918;28;20238;-57
2021/12/06 03:46:01;;;;;;;25.10;11.60;;;2.80;99.90;;;;;;5092958;28;20216;-57
2021/12/06 03:48:27;;;;;;;23.23;11.67;;;2.80;99.90;;;;;;5092967;28;20173;-57
2021/12/06 03:50:54;;;;;;;16.17;9.60;;;2.80;99.90;;;;;;5092973;28;20184;-57
2021/12/06 03:53:20;;;;;;;15.60;9.93;;;2.80;99.90;;;;;;5092871;28;20244;-57
2021/12/06 03:55:45;;;;;;;14.40;9.27;;;2.80;99.90;;;;;;5092613;28;20231;-57
2021/12/06 03:58:11;;;;;;;13.73;9.07;;;2.80;99.90;;;;;;5092935;28;20187;-57
2021/12/06 04:00:37;;;;;;;15.18;9.23;;;2.90;99.90;;;;;;5092602;28;20516;-57
2021/12/06 04:03:03;;;;;;;12.10;8.40;;;2.90;99.90;;;;;;5092785;28;20249;-57
2021/12/06 04:05:29;;;;;;;12.60;7.93;;;2.90;99.90;;;;;;5092413;28;20548;-57
2021/12/06 04:07:55;;;;;;;13.52;8.20;;;2.90;99.90;;;;;;5092626;28;20187;-57
2021/12/06 04:10:20;;;;;;;11.15;7.47;;;2.90;99.90;;;;;;5091454;28;20187;-58
2021/12/06 04:12:46;;;;;;;13.98;7.55;;;2.90;99.90;;;;;;5092601;28;20184;-57
2021/12/06 04:15:13;;;;;;;10.88;7.70;;;2.90;99.90;;;;;;5092427;28;20263;-57
2021/12/06 04:17:40;;;;;;;12.25;7.22;;;2.90;99.90;;;;;;5092293;28;20187;-57
2021/12/06 04:20:08;;;;;;;12.00;7.78;;;2.90;99.90;;;;;;5092441;28;20176;-57
2021/12/06 04:22:34;;;;;;;30.23;15.73;;;2.90;99.90;;;;;;5091984;28;20666;-57
2021/12/06 04:25:02;;;;;;;17.08;10.77;;;2.90;99.90;;;;;;5092133;28;20223;-57
2021/12/06 04:27:29;;;;;;;14.95;9.95;;;2.90;99.90;;;;;;5092207;28;20176;-57
2021/12/06 04:29:55;;;;;;;14.15;9.57;;;2.90;99.90;;;;;;5092174;28;20180;-58
2021/12/06 04:32:21;;;;;;;12.93;9.23;;;2.90;99.90;;;;;;5092134;28;20238;-58
2021/12/06 04:34:47;;;;;;;11.55;8.55;;;2.90;99.90;;;;;;5092160;28;20175;-57
2021/12/06 04:37:13;;;;;;;17.35;12.32;;;3.00;99.90;;;;;;5092259;28;20624;-58
2021/12/06 04:39:39;;;;;;;15.25;10.55;;;2.90;99.90;;;;;;5091840;28;20187;-58
2021/12/06 04:42:06;;;;;;;13.95;8.63;;;2.90;99.90;;;;;;5092141;28;20534;-57
2021/12/06 04:44:32;;;;;;;10.32;7.80;;;2.90;99.90;;;;;;5091867;28;20567;-58
2021/12/06 04:46:58;;;;;;;10.73;7.63;;;2.90;99.90;;;;;;5092029;28;20186;-58
2021/12/06 04:49:26;;;;;;;11.93;7.97;;;2.90;99.90;;;;;;5091665;28;20270;-58
2021/12/06 04:51:54;;;;;;;14.27;8.10;;;2.90;99.90;;;;;;5091839;28;20179;-58
2021/12/06 04:54:25;;;;;;;18.35;9.75;;;2.90;99.90;;;;;;5091648;28;20187;-58
2021/12/06 04:57:07;;;;;;;24.38;11.02;;;2.90;99.90;;;;;;5091937;28;20657;-58
2021/12/06 04:59:42;;;;;;;15.73;8.02;;;2.90;99.90;;;;;;5091665;28;20180;-58
2021/12/06 05:02:16;;;;;;;12.32;7.45;;;2.90;99.90;;;;;;5104005;28;20269;-58
2021/12/06 05:04:47;;;;;;;10.15;7.60;;;2.90;99.90;;;;;;5071661;28;20960;-59
2021/12/06 05:07:44;;;;;;;9.77;7.35;;;2.90;99.90;;;;;;5071761;28;20192;-58
2021/12/06 05:10:11;;;;;;;10.82;7.80;;;2.90;99.90;;;;;;5082987;28;20558;-58
2021/12/06 05:12:38;;;;;;;14.65;8.38;;;2.90;99.90;;;;;;5091444;28;20176;-58
2021/12/06 05:15:05;;;;;;;12.50;8.50;;;3.00;99.90;;;;;;5091550;28;20179;-58
2021/12/06 05:17:31;;;;;;;14.77;9.88;;;3.00;99.90;;;;;;5091512;28;20180;-57
2021/12/06 05:19:57;;;;;;;16.58;9.70;;;3.00;99.90;;;;;;5091344;28;20181;-59
2021/12/06 05:22:24;;;;;;;14.05;9.05;;;3.00;99.90;;;;;;5091624;28;20176;-58
2021/12/06 05:24:50;;;;;;;15.82;9.52;;;3.00;99.90;;;;;;5090818;28;20264;-57
2021/12/06 05:27:18;;;;;;;15.27;9.30;;;3.00;99.90;;;;;;5094625;28;20185;-59
2021/12/06 05:29:46;;;;;;;13.55;8.48;;;3.00;99.90;;;;;;5091538;28;20198;-59
2021/12/06 05:32:11;;;;;;;14.88;8.77;;;3.00;99.90;;;;;;5093702;28;20188;-58
2021/12/06 05:34:39;;;;;;;11.27;8.25;;;3.00;99.90;;;;;;5090026;28;20198;-59
2021/12/06 05:37:08;;;;;;;13.27;9.05;;;3.00;99.90;;;;;;5091066;28;20169;-58
2021/12/06 05:39:33;;;;;;;13.85;8.43;;;3.00;99.90;;;;;;5091301;28;20271;-59
2021/12/06 05:42:02;;;;;;;18.98;9.70;;;3.00;99.90;;;;;;5091560;28;20196;-58
2021/12/06 05:44:28;;;;;;;16.33;9.10;;;3.00;99.90;;;;;;5091240;28;20256;-58
2021/12/06 05:46:55;;;;;;;18.58;9.65;;;3.00;99.90;;;;;;5091561;28;20176;-58
2021/12/06 05:49:22;;;;;;;13.80;8.98;;;2.90;99.90;;;;;;5091427;28;20263;-59
2021/12/06 05:51:48;;;;;;;15.38;9.38;;;3.00;99.90;;;;;;5091257;28;20184;-58
2021/12/06 05:54:13;;;;;;;14.82;9.48;;;3.00;99.90;;;;;;5091427;28;20228;-58
2021/12/06 05:56:40;;;;;;;16.80;9.85;;;3.00;99.90;;;;;;5091158;28;20256;-58
2021/12/06 05:59:05;;;;;;;20.00;9.70;;;3.00;99.90;;;;;;5091378;28;20176;-58
2021/12/06 06:01:31;;;;;;;14.13;8.95;;;3.00;99.90;;;;;;5091235;28;20171;-58
2021/12/06 06:04:01;;;;;;;16.77;9.82;;;3.00;99.90;;;;;;5091700;28;20260;-58
2021/12/06 06:06:28;;;;;;;14.90;9.40;;;3.10;99.90;;;;;;5094531;28;20192;-58
2021/12/06 06:08:53;;;;;;;16.50;9.20;;;3.10;99.90;;;;;;5094884;28;20172;-58
2021/12/06 06:11:19;;;;;;;16.45;9.50;;;3.10;99.90;;;;;;5094736;28;20180;-58
2021/12/06 06:13:44;;;;;;;16.08;9.82;;;3.10;99.90;;;;;;5094880;28;20176;-59
2021/12/06 06:16:10;;;;;;;21.85;10.82;;;3.20;99.90;;;;;;5094878;28;20527;-58
2021/12/06 06:18:36;;;;;;;15.48;10.43;;;3.20;99.90;;;;;;5094669;28;20663;-59
2021/12/06 06:21:01;;;;;;;21.70;11.15;;;3.20;99.90;;;;;;5094565;28;20178;-58
2021/12/06 06:23:28;;;;;;;18.05;10.48;;;3.20;99.90;;;;;;5094628;28;20174;-58
2021/12/06 06:25:54;;;;;;;17.55;10.20;;;3.30;99.90;;;;;;5094499;28;20606;-58
2021/12/06 06:28:20;;;;;;;16.20;9.77;;;3.30;99.90;;;;;;5094468;28;20168;-59
2021/12/06 06:30:45;;;;;;;17.80;9.90;;;3.30;99.90;;;;;;5094817;28;20288;-58
2021/12/06 06:33:11;;;;;;;20.20;11.10;;;3.30;99.90;;;;;;5094480;28;20180;-58
2021/12/06 06:35:37;;;;;;;23.42;10.65;;;3.30;99.90;;;;;;5094414;28;20510;-58
2021/12/06 06:38:03;;;;;;;19.45;9.80;;;3.30;99.90;;;;;;5094310;28;20172;-59
2021/12/06 06:40:29;;;;;;;16.98;10.73;;;3.30;99.90;;;;;;5094187;28;20182;-58
2021/12/06 06:42:55;;;;;;;18.30;10.73;;;3.30;99.90;;;;;;5094257;28;20176;-58
2021/12/06 06:45:21;;;;;;;19.00;11.30;;;3.30;99.90;;;;;;5093969;28;20211;-59
2021/12/06 06:47:48;;;;;;;18.52;11.38;;;3.30;99.90;;;;;;5094084;28;20183;-59
2021/12/06 06:50:15;;;;;;;19.33;11.02;;;3.30;99.90;;;;;;5094201;28;20176;-58
2021/12/06 06:52:42;;;;;;;20.77;11.23;;;3.30;99.90;;;;;;5093828;28;20179;-59
2021/12/06 06:55:10;;;;;;;19.45;11.60;;;3.30;99.90;;;;;;5093865;28;20212;-58
2021/12/06 06:57:37;;;;;;;19.88;11.70;;;3.30;99.90;;;;;;5093900;28;20208;-58
2021/12/06 07:00:13;;;;;;;22.38;11.73;;;3.30;99.90;;;;;;5094114;28;20172;-58
2021/12/06 07:02:39;;;;;;;23.08;12.65;;;3.30;99.90;;;;;;5093802;28;20206;-58
2021/12/06 07:05:06;;;;;;;22.85;11.82;;;3.30;99.90;;;;;;5094002;28;20710;-59
2021/12/06 07:07:32;;;;;;;21.33;11.88;;;3.40;99.90;;;;;;5093599;28;20194;-59
2021/12/06 07:09:58;;;;;;;22.17;11.00;;;3.30;99.90;;;;;;5093537;28;20742;-59
2021/12/06 07:12:24;;;;;;;21.58;11.13;;;3.40;99.90;;;;;;5093532;28;20172;-59
2021/12/06 07:14:49;;;;;;;23.85;11.73;;;3.30;99.90;;;;;;5093665;28;20631;-59
2021/12/06 07:17:16;;;;;;;19.90;11.48;;;3.30;99.90;;;;;;5093668;28;20176;-59
2021/12/06 07:19:42;;;;;;;22.92;11.88;;;3.30;99.90;;;;;;5093341;28;20184;-59
2021/12/06 07:22:08;;;;;;;20.77;10.98;;;3.20;99.90;;;;;;5093606;28;20176;-59
2021/12/06 07:24:33;;;;;;;21.10;11.55;;;3.20;99.90;;;;;;5093370;28;20666;-59
2021/12/06 07:26:59;;;;;;;21.00;10.98;;;3.20;99.90;;;;;;5093410;28;20187;-59
2021/12/06 07:29:25;;;;;;;18.08;10.70;;;3.30;99.90;;;;;;5093478;28;20168;-59
2021/12/06 07:31:51;;;;;;;15.82;10.32;;;3.30;99.90;;;;;;5093312;28;20176;-58
2021/12/06 07:34:17;;;;;;;18.27;10.30;;;3.30;99.90;;;;;;5093280;28;20524;-59
2021/12/06 07:36:44;;;;;;;18.20;10.57;;;3.30;99.90;;;;;;5093189;28;20180;-58
2021/12/06 07:39:10;;;;;;;19.90;11.30;;;3.30;99.90;;;;;;5091924;28;20176;-59
2021/12/06 07:41:36;;;;;;;18.13;10.10;;;3.40;99.90;;;;;;5093083;28;20559;-59
2021/12/06 07:44:04;;;;;;;21.90;10.50;;;3.40;99.90;;;;;;5092933;28;20202;-58
2021/12/06 07:46:30;;;;;;;18.52;10.73;;;3.40;99.90;;;;;;5093032;28;20198;-59
2021/12/06 07:48:55;;;;;;;20.33;11.35;;;3.40;99.90;;;;;;5093120;28;20180;-59
2021/12/06 07:51:26;;;;;;;17.02;10.45;;;3.40;99.90;;;;;;5091602;28;20187;-59
2021/12/06 07:53:52;;;;;;;22.00;11.48;;;3.50;99.90;;;;;;5093004;28;20168;-58
2021/12/06 07:56:18;;;;;;;23.60;11.70;;;3.40;99.90;;;;;;5092756;28;20315;-58
2021/12/06 07:58:44;;;;;;;20.00;11.02;;;3.50;99.90;;;;;;5093066;28;20383;-59
2021/12/06 08:01:10;;;;;;;18.77;11.18;;;3.50;99.90;;;;;;5092900;28;20204;-58
2021/12/06 08:03:37;;;;;;;19.20;11.52;;;3.60;99.90;;;;;;5092777;28;20225;-59
2021/12/06 08:06:03;;;;;;;18.63;11.68;;;3.60;99.90;;;;;;5092640;28;20554;-59
2021/12/06 08:08:31;;;;;;;17.48;11.32;;;3.60;99.90;;;;;;5092575;28;20184;-59
2021/12/06 08:11:02;;;;;;;19.23;11.85;;;3.60;99.90;;;;;;5092573;28;20223;-59
2021/12/06 08:13:33;;;;;;;18.00;10.80;;;3.70;99.90;;;;;;5092489;28;20630;-59
2021/12/06 08:16:03;;;;;;;21.48;11.43;;;3.70;99.90;;;;;;5092506;28;20172;-59
2021/12/06 08:18:29;;;;;;;23.75;12.35;;;3.70;99.90;;;;;;5092546;28;20631;-58
2021/12/06 08:20:56;;;;;;;26.67;12.65;;;3.60;99.90;;;;;;5092510;28;20704;-59
2021/12/06 08:23:23;;;;;;;25.98;13.32;;;3.70;99.90;;;;;;5092218;28;20187;-59
2021/12/06 08:25:50;;;;;;;29.77;12.85;;;3.70;99.90;;;;;;5092369;28;20207;-59
2021/12/06 08:28:17;;;;;;;26.75;13.63;;;3.70;99.90;;;;;;5092038;28;20255;-58
2021/12/06 08:30:43;;;;;;;24.48;12.60;;;3.70;99.90;;;;;;5092157;28;20184;-59
2021/12/06 08:33:09;;;;;;;27.02;13.27;;;3.80;99.90;;;;;;5092410;28;20300;-59
2021/12/06 08:35:38;;;;;;;32.63;13.13;;;3.80;99.90;;;;;;5092275;28;20175;-59
2021/12/06 08:38:05;;;;;;;31.75;13.98;;;3.70;99.90;;;;;;5092260;28;20620;-59
2021/12/06 08:40:31;;;;;;;28.63;13.75;;;3.70;99.90;;;;;;5092087;28;20179;-58
2021/12/06 08:42:57;;;;;;;28.65;13.93;;;3.70;99.90;;;;;;5092222;28;20643;-59
2021/12/06 08:45:26;;;;;;;33.55;14.52;;;3.60;99.90;;;;;;5092043;28;20308;-59
2021/12/06 08:47:51;;;;;;;29.80;13.98;;;3.70;99.90;;;;;;5092061;28;20204;-58
2021/12/06 08:50:20;;;;;;;28.50;14.35;;;3.70;99.90;;;;;;5092172;28;20203;-59
2021/12/06 08:52:46;;;;;;;27.45;14.52;;;3.60;99.90;;;;;;5091995;28;20638;-59
2021/12/06 08:55:12;;;;;;;27.67;13.68;;;3.70;99.90;;;;;;5091806;28;20227;-58
2021/12/06 08:57:38;;;;;;;25.33;13.73;;;3.60;99.90;;;;;;5091795;28;20689;-59
2021/12/06 09:00:07;;;;;;;28.92;14.07;;;3.60;99.90;;;;;;5091904;28;20706;-59
2021/12/06 09:02:32;;;;;;;26.30;13.80;;;3.60;99.90;;;;;;5091869;28;20191;-59
2021/12/06 09:04:59;;;;;;;27.80;14.40;;;3.60;99.90;;;;;;5091626;28;20208;-59
2021/12/06 09:07:25;;;;;;;29.38;14.80;;;3.60;99.90;;;;;;5091652;28;20639;-59
2021/12/06 09:09:55;;;;;;;31.30;15.50;;;3.60;99.90;;;;;;5091813;28;20180;-59
2021/12/06 09:12:24;;;;;;;34.90;15.93;;;3.60;99.90;;;;;;5091625;28;20180;-58
2021/12/06 09:14:51;;;;;;;40.63;18.33;;;3.60;99.90;;;;;;5092003;28;20180;-59
2021/12/06 09:17:18;;;;;;;30.02;15.80;;;3.60;99.90;;;;;;5091794;28;20180;-59
2021/12/06 09:19:44;;;;;;;31.58;14.15;;;3.60;99.90;;;;;;5091658;28;20168;-59
2021/12/06 09:22:10;;;;;;;36.33;16.80;;;3.60;99.90;;;;;;5091823;28;20274;-59
2021/12/06 09:24:36;;;;;;;33.88;16.70;;;3.60;99.90;;;;;;5091474;28;20246;-59
2021/12/06 09:27:02;;;;;;;30.65;15.57;;;3.70;99.90;;;;;;5091638;28;20530;-59
2021/12/06 09:29:29;;;;;;;31.60;16.02;;;3.70;99.90;;;;;;5091640;28;20177;-59
2021/12/06 09:31:59;;;;;;;32.85;17.67;;;3.80;99.90;;;;;;5091699;28;20271;-59
2021/12/06 09:34:26;;;;;;;28.90;14.82;;;3.80;99.90;;;;;;5091826;28;20298;-59
2021/12/06 09:36:52;;;;;;;31.75;14.95;;;3.90;99.90;;;;;;5091685;28;20176;-59
2021/12/06 09:39:18;;;;;;;31.48;13.77;;;3.90;99.90;;;;;;5092188;28;20186;-59
2021/12/06 09:41:43;;;;;;;32.25;15.15;;;3.90;99.90;;;;;;5095449;28;20654;-59
2021/12/06 09:44:10;;;;;;;33.83;14.60;;;4.00;99.90;;;;;;5095420;28;20658;-59
2021/12/06 09:46:37;;;;;;;34.45;15.52;;;4.00;99.90;;;;;;5095274;28;20184;-59
2021/12/06 09:49:13;;;;;;;29.30;14.18;;;4.00;99.90;;;;;;5095432;28;20203;-59
2021/12/06 09:51:42;;;;;;;33.38;15.30;;;4.00;99.90;;;;;;5095093;28;20191;-59
2021/12/06 09:54:09;;;;;;;33.83;15.27;;;4.00;99.90;;;;;;5095128;28;20267;-59
2021/12/06 09:56:38;;;;;;;32.58;14.35;;;4.00;99.90;;;;;;5093672;28;20265;-59
2021/12/06 09:59:09;;;;;;;34.60;14.18;;;4.00;99.90;;;;;;5095202;28;20184;-58
2021/12/06 10:01:38;;;;;;;30.63;14.68;;;4.00;99.90;;;;;;5095094;28;20624;-59
2021/12/06 10:04:07;;;;;;;41.38;15.27;;;4.00;99.90;;;;;;5095145;28;20203;-59
2021/12/06 10:06:33;;;;;;;33.55;14.90;;;4.00;99.90;;;;;;5094866;28;20233;-59
2021/12/06 10:09:01;;;;;;;40.85;15.43;;;4.10;99.90;;;;;;5094760;28;20180;-59
2021/12/06 10:11:26;;;;;;;36.00;15.98;;;4.10;99.90;;;;;;5094933;28;20194;-59
2021/12/06 10:13:54;;;;;;;38.55;15.30;;;4.10;99.90;;;;;;5094954;28;20702;-59
2021/12/06 10:16:20;;;;;;;33.50;15.70;;;4.10;99.90;;;;;;5094858;28;20206;-59
2021/12/06 10:18:47;;;;;;;34.38;16.88;;;4.10;99.90;;;;;;5094802;28;20172;-59
2021/12/06 10:21:13;;;;;;;35.50;16.02;;;4.20;99.90;;;;;;5094758;28;20212;-59
2021/12/06 10:23:39;;;;;;;38.88;15.82;;;4.30;99.90;;;;;;5094494;28;20183;-59
2021/12/06 10:26:07;;;;;;;34.90;15.07;;;4.30;99.90;;;;;;5094496;28;20208;-59
2021/12/06 10:28:34;;;;;;;37.05;17.13;;;4.40;99.90;;;;;;5094442;28;20631;-59
2021/12/06 10:31:05;;;;;;;37.65;16.17;;;4.50;99.90;;;;;;5094573;28;20172;-59
2021/12/06 10:33:34;;;;;;;32.50;15.38;;;4.60;99.90;;;;;;5094417;28;20526;-58
2021/12/06 10:36:08;;;;;;;37.22;18.42;;;4.60;99.90;;;;;;5094329;28;20631;-59
2021/12/06 10:38:40;;;;;;;35.78;16.23;;;4.60;99.90;;;;;;5094295;28;20210;-59
2021/12/06 10:41:11;;;;;;;30.98;14.45;;;4.70;99.90;;;;;;5094368;28;20258;-59
2021/12/06 10:43:38;;;;;;;26.15;13.90;;;4.80;99.90;;;;;;5094289;28;20664;-59
2021/12/06 10:46:06;;;;;;;23.95;12.65;;;4.80;99.90;;;;;;5094299;28;20223;-59
2021/12/06 10:48:35;;;;;;;27.27;12.55;;;4.90;99.90;;;;;;5094224;28;20280;-59
2021/12/06 10:51:06;;;;;;;23.48;11.30;;;4.90;99.90;;;;;;5093681;28;20184;-59
2021/12/06 10:53:45;;;;;;;26.35;11.43;;;4.90;99.90;;;;;;5094058;28;20180;-59
2021/12/06 10:56:19;;;;;;;22.90;11.02;;;5.00;99.90;;;;;;5094052;28;20288;-59
2021/12/06 10:58:46;;;;;;;21.25;11.20;;;5.00;99.90;;;;;;5094037;28;20187;-59
2021/12/06 11:01:16;;;;;;;19.90;9.48;;;5.00;99.90;;;;;;5093961;28;20176;-59
2021/12/06 11:03:47;;;;;;;21.88;10.05;;;4.90;99.90;;;;;;5093796;28;20256;-59
2021/12/06 11:06:20;;;;;;;18.58;9.98;;;4.90;99.90;;;;;;5093828;28;20713;-59
2021/12/06 11:08:49;;;;;;;15.35;8.68;;;4.80;99.90;;;;;;5092702;28;20172;-59
2021/12/06 11:11:16;;;;;;;17.63;9.98;;;4.90;99.90;;;;;;5073635;28;20180;-59
2021/12/06 11:13:48;;;;;;;18.35;10.15;;;4.80;99.90;;;;;;5073386;28;20189;-59
2021/12/06 11:16:21;;;;;;;17.20;9.50;;;4.90;99.90;;;;;;5073533;28;20203;-59
2021/12/06 11:19:06;;;;;;;18.20;9.90;;;4.80;99.90;;;;;;5073348;28;20505;-59
2021/12/06 11:21:53;;;;;;;18.25;9.93;;;4.80;99.90;;;;;;5073363;28;20185;-59
2021/12/06 11:24:21;;;;;;;16.30;9.52;;;4.90;99.90;;;;;;5073195;28;20712;-59
2021/12/06 11:27:01;;;;;;;17.83;9.85;;;5.00;99.90;;;;;;5073311;28;20181;-59
2021/12/06 11:29:26;;;;;;;14.73;8.65;;;5.10;99.90;;;;;;5073180;28;20164;-59
2021/12/06 11:31:55;;;;;;;18.70;9.93;;;5.30;99.90;;;;;;5073202;28;20187;-59
2021/12/06 11:34:24;;;;;;;18.60;9.55;;;5.40;99.90;;;;;;5072975;28;20187;-59
2021/12/06 11:36:49;;;;;;;17.30;9.93;;;5.50;99.90;;;;;;5073198;28;20191;-58
2021/12/06 11:39:19;;;;;;;19.10;9.85;;;5.50;99.90;;;;;;5072962;28;20173;-59
2021/12/06 11:41:48;;;;;;;13.85;8.48;;;5.60;99.90;;;;;;5073027;28;20246;-59
2021/12/06 11:44:28;;;;;;;15.02;8.90;;;5.60;99.90;;;;;;5072785;28;20173;-59
2021/12/06 11:46:57;;;;;;;16.48;8.63;;;5.60;99.90;;;;;;5072916;28;20191;-58
2021/12/06 11:49:31;;;;;;;12.80;7.95;;;5.70;99.90;;;;;;5072842;28;20662;-59
2021/12/06 11:51:58;;;;;;;13.10;8.52;;;5.70;99.90;;;;;;5072921;28;20191;-59
2021/12/06 11:54:24;;;;;;;13.68;8.30;;;5.60;99.90;;;;;;5072445;28;20259;-59
2021/12/06 11:56:51;;;;;;;10.55;6.95;;;5.70;99.90;;;;;;5072847;28;20267;-59
2021/12/06 11:59:18;;;;;;;9.27;6.07;;;5.80;99.90;;;;;;5072680;28;20180;-59
2021/12/06 12:01:51;;;;;;;9.95;6.05;;;5.90;99.90;;;;;;5071998;28;20588;-59
2021/12/06 12:04:23;;;;;;;8.50;5.80;;;6.00;99.90;;;;;;5072403;28;20264;-59
2021/12/06 12:06:58;;;;;;;8.05;5.43;;;6.00;99.90;;;;;;5072438;28;20234;-58
2021/12/06 12:09:36;;;;;;;11.68;6.65;;;6.00;99.90;;;;;;5077968;28;20500;-59
2021/12/06 12:12:11;;;;;;;9.48;5.95;;;6.00;99.90;;;;;;5092503;28;20186;-59
2021/12/06 12:14:58;;;;;;;6.60;4.93;;;6.20;99.90;;;;;;5092528;28;20218;-59
2021/12/06 12:17:33;;;;;;;12.50;6.97;;;6.30;99.90;;;;;;5092573;28;20168;-59
2021/12/06 12:20:03;;;;;;;11.52;6.82;;;6.50;99.90;;;;;;5092418;28;20182;-58
2021/12/06 12:22:29;;;;;;;9.38;5.80;;;6.60;99.90;;;;;;5092445;28;20233;-59
2021/12/06 12:25:03;;;;;;;8.88;5.70;;;6.70;99.90;;;;;;5092375;28;20245;-58
2021/12/06 12:30:01;;;;;;;8.85;5.22;;;7.00;99.90;;;;;;5092256;28;20160;-59
2021/12/06 12:32:28;;;;;;;7.50;5.22;;;7.00;99.90;;;;;;5092070;28;20708;-59
2021/12/06 12:34:58;;;;;;;6.95;4.32;;;7.00;99.90;;;;;;5092322;28;20180;-59
2021/12/06 12:37:24;;;;;;;7.90;4.50;;;6.90;99.90;;;;;;5092240;28;20172;-59
2021/12/06 12:40:03;;;;;;;5.65;3.60;;;6.90;99.90;;;;;;5092248;28;20179;-59
2021/12/06 12:42:29;;;;;;;4.30;3.20;;;6.60;99.90;;;;;;5090854;28;20195;-59
2021/12/06 12:44:56;;;;;;;5.88;3.35;;;6.30;99.90;;;;;;5092155;28;20251;-58
2021/12/06 12:47:25;;;;;;;7.22;3.92;;;6.10;99.90;;;;;;5092012;28;20176;-59
2021/12/06 12:49:55;;;;;;;4.82;3.65;;;5.90;99.90;;;;;;5090808;28;20645;-58
2021/12/06 12:52:45;;;;;;;6.07;3.88;;;5.80;99.90;;;;;;5091929;28;20235;-59
2021/12/06 12:55:22;;;;;;;6.75;4.75;;;5.80;99.90;;;;;;5092102;28;20231;-59
2021/12/06 12:57:49;;;;;;;7.85;4.90;;;5.80;99.90;;;;;;5091811;28;20175;-59
2021/12/06 13:00:21;;;;;;;7.28;4.57;;;5.80;99.90;;;;;;5091991;28;20184;-59
2021/12/06 13:02:46;;;;;;;6.55;4.35;;;5.80;99.90;;;;;;5090364;28;20306;-58
2021/12/06 13:05:18;;;;;;;7.05;4.57;;;5.80;99.90;;;;;;5091838;28;20310;-59
2021/12/06 13:07:47;;;;;;;7.60;5.07;;;5.80;99.90;;;;;;5091774;28;20586;-59
2021/12/06 13:10:40;;;;;;;9.52;5.10;;;5.80;99.90;;;;;;5091729;28;20180;-59
2021/12/06 13:13:10;;;;;;;7.55;4.57;;;5.80;99.90;;;;;;5092154;28;20164;-58